sensor_id;sensor_type;location;lat;lon;timestamp;pressure;altitude;pressure_sealevel;temperature;humidity
30343;BME280;17145;49.902;8.680;'2023-04-01 01:58:19';98410;;;9;51
30343;BME280;17145;49.902;8.680;'2023-04-01 02:00:47';98400;;;9;51
30343;BME280;17145;49.902;8.680;'2023-04-01 02:03:14';98400;;;9;51
30343;BME280;17145;49.902;8.680;'2023-04-01 02:05:42';98410;;;9;51
30343;BME280;17145;49.902;8.680;'2023-04-01 02:08:11';98410;;;10;51
30343;BME280;17145;49.902;8.680;'2023-04-01 02:10:38';98410;;;9;52
30343;BME280;17145;49.902;8.680;'2023-04-01 02:13:06';98420;;;9;51
30343;BME280;17145;49.902;8.680;'2023-04-01 02:15:35';98420;;;9;52
30343;BME280;17145;49.902;8.680;'2023-04-01 02:18:02';98410;;;9;51
30343;BME280;17145;49.902;8.680;'2023-04-01 02:20:30';98420;;;9;51
30343;BME280;17145;49.902;8.680;'2023-04-01 02:22:58';98410;;;9;51
30343;BME280;17145;49.902;8.680;'2023-04-01 02:25:26';98400;;;9;51
30343;BME280;17145;49.902;8.680;'2023-04-01 02:27:54';98410;;;9;51
30343;BME280;17145;49.902;8.680;'2023-04-01 02:30:21';98400;;;9;51
30343;BME280;17145;49.902;8.680;'2023-04-01 02:32:51';98410;;;10;50
30343;BME280;17145;49.902;8.680;'2023-04-01 02:35:19';98400;;;9;50
30343;BME280;17145;49.902;8.680;'2023-04-01 02:37:46';98400;;;9;50
30343;BME280;17145;49.902;8.680;'2023-04-01 02:40:23';98400;;;9;50
30343;BME280;17145;49.902;8.680;'2023-04-01 02:42:50';98400;;;10;50
30343;BME280;17145;49.902;8.680;'2023-04-01 02:45:31';98400;;;9;50
30343;BME280;17145;49.902;8.680;'2023-04-01 02:48:04';98400;;;9;50
30343;BME280;17145;49.902;8.680;'2023-04-01 02:50:33';98400;;;9;50
30343;BME280;17145;49.902;8.680;'2023-04-01 02:53:02';98400;;;9;50
30343;BME280;17145;49.902;8.680;'2023-04-01 02:55:33';98400;;;9;50
30343;BME280;17145;49.902;8.680;'2023-04-01 02:58:04';98400;;;9;51
30343;BME280;17145;49.902;8.680;'2023-04-01 03:00:33';98390;;;9;51
30343;BME280;17145;49.902;8.680;'2023-04-01 03:03:00';98390;;;9;50
30343;BME280;17145;49.902;8.680;'2023-04-01 03:05:38';98390;;;9;50
30343;BME280;17145;49.902;8.680;'2023-04-01 03:08:15';98390;;;9;51
30343;BME280;17145;49.902;8.680;'2023-04-01 03:10:48';98390;;;9;50
30343;BME280;17145;49.902;8.680;'2023-04-01 03:13:22';98400;;;9;50
30343;BME280;17145;49.902;8.680;'2023-04-01 03:15:55';98400;;;9;50
30343;BME280;17145;49.902;8.680;'2023-04-01 03:18:32';98410;;;9;50
30343;BME280;17145;49.902;8.680;'2023-04-01 03:21:25';98400;;;9;50
30343;BME280;17145;49.902;8.680;'2023-04-01 03:24:12';98400;;;9;51
30343;BME280;17145;49.902;8.680;'2023-04-01 03:26:50';98390;;;9;50
30343;BME280;17145;49.902;8.680;'2023-04-01 03:29:35';98400;;;9;50
30343;BME280;17145;49.902;8.680;'2023-04-01 03:32:09';98400;;;9;50
30343;BME280;17145;49.902;8.680;'2023-04-01 03:34:46';98400;;;9;50
30343;BME280;17145;49.902;8.680;'2023-04-01 03:37:17';98400;;;8;51
30343;BME280;17145;49.902;8.680;'2023-04-01 03:39:50';98400;;;9;51
30343;BME280;17145;49.902;8.680;'2023-04-01 03:42:20';98400;;;9;51
30343;BME280;17145;49.902;8.680;'2023-04-01 03:44:50';98390;;;9;51
30343;BME280;17145;49.902;8.680;'2023-04-01 03:47:21';98400;;;9;50
30343;BME280;17145;49.902;8.680;'2023-04-01 03:49:50';98400;;;9;50
30343;BME280;17145;49.902;8.680;'2023-04-01 03:52:18';98390;;;9;50
30343;BME280;17145;49.902;8.680;'2023-04-01 03:54:48';98400;;;9;50
30343;BME280;17145;49.902;8.680;'2023-04-01 03:57:17';98400;;;9;50
30343;BME280;17145;49.902;8.680;'2023-04-01 03:59:48';98400;;;9;50
30343;BME280;17145;49.902;8.680;'2023-04-01 04:02:16';98390;;;9;50
30343;BME280;17145;49.902;8.680;'2023-04-01 04:04:46';98380;;;9;50
30343;BME280;17145;49.902;8.680;'2023-04-01 04:07:20';98390;;;9;50
30343;BME280;17145;49.902;8.680;'2023-04-01 04:09:49';98390;;;10;49
30343;BME280;17145;49.902;8.680;'2023-04-01 04:12:22';98390;;;10;49
30343;BME280;17145;49.902;8.680;'2023-04-01 04:14:55';98390;;;9;49
30343;BME280;17145;49.902;8.680;'2023-04-01 04:17:26';98390;;;9;49
30343;BME280;17145;49.902;8.680;'2023-04-01 04:19:58';98390;;;9;49
30343;BME280;17145;49.902;8.680;'2023-04-01 04:22:29';98390;;;9;49
30343;BME280;17145;49.902;8.680;'2023-04-01 04:25:00';98380;;;9;50
30343;BME280;17145;49.902;8.680;'2023-04-01 04:27:30';98390;;;10;50
30343;BME280;17145;49.902;8.680;'2023-04-01 04:29:58';98390;;;10;49
30343;BME280;17145;49.902;8.680;'2023-04-01 04:32:27';98390;;;9;50
30343;BME280;17145;49.902;8.680;'2023-04-01 04:34:56';98370;;;9;50
30343;BME280;17145;49.902;8.680;'2023-04-01 04:37:24';98370;;;9;50
30343;BME280;17145;49.902;8.680;'2023-04-01 04:39:51';98370;;;9;51
30343;BME280;17145;49.902;8.680;'2023-04-01 04:42:20';98380;;;9;50
30343;BME280;17145;49.902;8.680;'2023-04-01 04:44:47';98380;;;9;50
30343;BME280;17145;49.902;8.680;'2023-04-01 04:47:17';98380;;;9;51
30343;BME280;17145;49.902;8.680;'2023-04-01 04:49:45';98380;;;9;50
30343;BME280;17145;49.902;8.680;'2023-04-01 04:52:12';98370;;;9;51
30343;BME280;17145;49.902;8.680;'2023-04-01 04:54:41';98370;;;8;52
30343;BME280;17145;49.902;8.680;'2023-04-01 04:57:09';98370;;;8;53
30343;BME280;17145;49.902;8.680;'2023-04-01 04:59:37';98360;;;8;52
30343;BME280;17145;49.902;8.680;'2023-04-01 05:02:05';98360;;;9;53
30343;BME280;17145;49.902;8.680;'2023-04-01 05:04:32';98360;;;9;53
30343;BME280;17145;49.902;8.680;'2023-04-01 05:07:00';98360;;;9;52
30343;BME280;17145;49.902;8.680;'2023-04-01 05:09:27';98360;;;9;51
30343;BME280;17145;49.902;8.680;'2023-04-01 05:11:55';98370;;;9;52
30343;BME280;17145;49.902;8.680;'2023-04-01 05:14:22';98370;;;9;51
30343;BME280;17145;49.902;8.680;'2023-04-01 05:16:49';98370;;;9;51
30343;BME280;17145;49.902;8.680;'2023-04-01 05:19:19';98370;;;9;52
30343;BME280;17145;49.902;8.680;'2023-04-01 05:21:46';98360;;;9;51
30343;BME280;17145;49.902;8.680;'2023-04-01 05:24:14';98370;;;9;51
30343;BME280;17145;49.902;8.680;'2023-04-01 05:26:41';98380;;;10;51
30343;BME280;17145;49.902;8.680;'2023-04-01 05:29:09';98360;;;9;51
30343;BME280;17145;49.902;8.680;'2023-04-01 05:31:36';98360;;;9;50
30343;BME280;17145;49.902;8.680;'2023-04-01 05:34:04';98360;;;9;51
30343;BME280;17145;49.902;8.680;'2023-04-01 05:36:31';98370;;;9;51
30343;BME280;17145;49.902;8.680;'2023-04-01 05:38:59';98370;;;9;52
30343;BME280;17145;49.902;8.680;'2023-04-01 05:41:26';98370;;;9;52
30343;BME280;17145;49.902;8.680;'2023-04-01 05:43:53';98370;;;9;52
30343;BME280;17145;49.902;8.680;'2023-04-01 05:46:21';98370;;;9;52
30343;BME280;17145;49.902;8.680;'2023-04-01 05:48:49';98360;;;9;52
30343;BME280;17145;49.902;8.680;'2023-04-01 05:51:17';98370;;;9;52
30343;BME280;17145;49.902;8.680;'2023-04-01 05:53:44';98370;;;9;52
30343;BME280;17145;49.902;8.680;'2023-04-01 05:56:12';98370;;;9;52
30343;BME280;17145;49.902;8.680;'2023-04-01 05:58:40';98380;;;9;52
30343;BME280;17145;49.902;8.680;'2023-04-01 06:01:14';98370;;;9;51
30343;BME280;17145;49.902;8.680;'2023-04-01 06:03:42';98370;;;9;51
30343;BME280;17145;49.902;8.680;'2023-04-01 06:06:12';98380;;;9;51
30343;BME280;17145;49.902;8.680;'2023-04-01 06:08:39';98370;;;9;51
30343;BME280;17145;49.902;8.680;'2023-04-01 06:11:07';98360;;;9;51
30343;BME280;17145;49.902;8.680;'2023-04-01 06:13:35';98380;;;9;52
30343;BME280;17145;49.902;8.680;'2023-04-01 06:16:03';98370;;;9;52
30343;BME280;17145;49.902;8.680;'2023-04-01 06:18:32';98370;;;9;51
30343;BME280;17145;49.902;8.680;'2023-04-01 06:20:59';98360;;;9;52
30343;BME280;17145;49.902;8.680;'2023-04-01 06:23:27';98380;;;9;52
30343;BME280;17145;49.902;8.680;'2023-04-01 06:25:57';98370;;;9;51
30343;BME280;17145;49.902;8.680;'2023-04-01 06:28:25';98370;;;9;51
30343;BME280;17145;49.902;8.680;'2023-04-01 06:30:54';98370;;;10;51
30343;BME280;17145;49.902;8.680;'2023-04-01 06:33:23';98370;;;10;50
30343;BME280;17145;49.902;8.680;'2023-04-01 06:35:54';98370;;;9;50
30343;BME280;17145;49.902;8.680;'2023-04-01 06:38:21';98370;;;10;50
30343;BME280;17145;49.902;8.680;'2023-04-01 06:40:49';98370;;;9;50
30343;BME280;17145;49.902;8.680;'2023-04-01 06:43:18';98360;;;9;50
30343;BME280;17145;49.902;8.680;'2023-04-01 06:45:46';98370;;;9;50
30343;BME280;17145;49.902;8.680;'2023-04-01 06:48:15';98360;;;9;50
30343;BME280;17145;49.902;8.680;'2023-04-01 06:50:45';98360;;;9;50
30343;BME280;17145;49.902;8.680;'2023-04-01 06:53:13';98360;;;9;50
30343;BME280;17145;49.902;8.680;'2023-04-01 06:55:43';98360;;;9;50
30343;BME280;17145;49.902;8.680;'2023-04-01 06:58:12';98370;;;9;50
30343;BME280;17145;49.902;8.680;'2023-04-01 07:00:40';98360;;;9;51
30343;BME280;17145;49.902;8.680;'2023-04-01 07:03:08';98360;;;9;51
30343;BME280;17145;49.902;8.680;'2023-04-01 07:05:36';98370;;;9;52
30343;BME280;17145;49.902;8.680;'2023-04-01 07:08:03';98360;;;9;51
30343;BME280;17145;49.902;8.680;'2023-04-01 07:10:31';98370;;;9;51
30343;BME280;17145;49.902;8.680;'2023-04-01 07:12:59';98380;;;9;51
30343;BME280;17145;49.902;8.680;'2023-04-01 07:15:26';98370;;;9;52
30343;BME280;17145;49.902;8.680;'2023-04-01 07:17:54';98360;;;9;51
30343;BME280;17145;49.902;8.680;'2023-04-01 07:20:21';98370;;;9;51
30343;BME280;17145;49.902;8.680;'2023-04-01 07:22:48';98370;;;9;51
30343;BME280;17145;49.902;8.680;'2023-04-01 07:25:16';98360;;;9;52
30343;BME280;17145;49.902;8.680;'2023-04-01 07:27:43';98360;;;9;52
30343;BME280;17145;49.902;8.680;'2023-04-01 07:30:11';98370;;;9;52
30343;BME280;17145;49.902;8.680;'2023-04-01 07:32:39';98370;;;8;52
30343;BME280;17145;49.902;8.680;'2023-04-01 07:35:07';98360;;;9;52
30343;BME280;17145;49.902;8.680;'2023-04-01 07:37:34';98360;;;9;52
30343;BME280;17145;49.902;8.680;'2023-04-01 07:40:03';98370;;;8;53
30343;BME280;17145;49.902;8.680;'2023-04-01 07:42:31';98360;;;9;53
30343;BME280;17145;49.902;8.680;'2023-04-01 07:44:58';98360;;;9;52
30343;BME280;17145;49.902;8.680;'2023-04-01 07:47:26';98360;;;9;51
30343;BME280;17145;49.902;8.680;'2023-04-01 07:49:53';98350;;;9;52
30343;BME280;17145;49.902;8.680;'2023-04-01 07:52:21';98360;;;9;51
30343;BME280;17145;49.902;8.680;'2023-04-01 07:54:49';98360;;;9;52
30343;BME280;17145;49.902;8.680;'2023-04-01 07:57:16';98360;;;9;53
30343;BME280;17145;49.902;8.680;'2023-04-01 07:59:44';98360;;;9;53
30343;BME280;17145;49.902;8.680;'2023-04-01 08:02:12';98350;;;9;53
30343;BME280;17145;49.902;8.680;'2023-04-01 08:04:40';98350;;;9;53
30343;BME280;17145;49.902;8.680;'2023-04-01 08:07:13';98360;;;9;53
30343;BME280;17145;49.902;8.680;'2023-04-01 08:09:40';98360;;;9;52
30343;BME280;17145;49.902;8.680;'2023-04-01 08:12:24';98360;;;9;53
30343;BME280;17145;49.902;8.680;'2023-04-01 08:15:02';98360;;;8;54
30343;BME280;17145;49.902;8.680;'2023-04-01 08:17:43';98350;;;9;53
30343;BME280;17145;49.902;8.680;'2023-04-01 08:20:21';98360;;;9;52
30343;BME280;17145;49.902;8.680;'2023-04-01 08:23:06';98350;;;9;52
30343;BME280;17145;49.902;8.680;'2023-04-01 08:25:54';98360;;;9;52
30343;BME280;17145;49.902;8.680;'2023-04-01 08:28:41';98350;;;9;52
30343;BME280;17145;49.902;8.680;'2023-04-01 08:31:20';98360;;;9;52
30343;BME280;17145;49.902;8.680;'2023-04-01 08:36:42';98360;;;9;52
30343;BME280;17145;49.902;8.680;'2023-04-01 08:39:26';98360;;;9;52
30343;BME280;17145;49.902;8.680;'2023-04-01 08:42:10';98360;;;9;52
30343;BME280;17145;49.902;8.680;'2023-04-01 08:44:48';98360;;;9;52
30343;BME280;17145;49.902;8.680;'2023-04-01 08:47:31';98360;;;9;52
30343;BME280;17145;49.902;8.680;'2023-04-01 08:50:07';98360;;;9;52
30343;BME280;17145;49.902;8.680;'2023-04-01 08:52:47';98370;;;9;52
30343;BME280;17145;49.902;8.680;'2023-04-01 08:55:25';98360;;;9;53
30343;BME280;17145;49.902;8.680;'2023-04-01 08:57:57';98360;;;8;54
30343;BME280;17145;49.902;8.680;'2023-04-01 09:00:29';98360;;;9;54
30343;BME280;17145;49.902;8.680;'2023-04-01 09:03:07';98360;;;8;54
30343;BME280;17145;49.902;8.680;'2023-04-01 09:05:35';98370;;;9;54
30343;BME280;17145;49.902;8.680;'2023-04-01 09:08:08';98360;;;9;55
30343;BME280;17145;49.902;8.680;'2023-04-01 09:10:45';98370;;;9;54
30343;BME280;17145;49.902;8.680;'2023-04-01 09:13:20';98370;;;10;53
30343;BME280;17145;49.902;8.680;'2023-04-01 09:15:58';98370;;;9;54
30343;BME280;17145;49.902;8.680;'2023-04-01 09:18:34';98370;;;9;54
30343;BME280;17145;49.902;8.680;'2023-04-01 09:21:04';98370;;;9;54
30343;BME280;17145;49.902;8.680;'2023-04-01 09:23:39';98380;;;9;54
30343;BME280;17145;49.902;8.680;'2023-04-01 09:26:15';98370;;;9;54
30343;BME280;17145;49.902;8.680;'2023-04-01 09:28:43';98370;;;9;55
30343;BME280;17145;49.902;8.680;'2023-04-01 09:31:23';98370;;;9;54
30343;BME280;17145;49.902;8.680;'2023-04-01 09:34:02';98380;;;9;54
30343;BME280;17145;49.902;8.680;'2023-04-01 09:36:38';98370;;;9;54
30343;BME280;17145;49.902;8.680;'2023-04-01 09:39:20';98380;;;9;53
30343;BME280;17145;49.902;8.680;'2023-04-01 09:41:55';98380;;;9;54
30343;BME280;17145;49.902;8.680;'2023-04-01 09:44:29';98380;;;9;54
30343;BME280;17145;49.902;8.680;'2023-04-01 09:47:11';98380;;;9;53
30343;BME280;17145;49.902;8.680;'2023-04-01 09:49:50';98370;;;10;53
30343;BME280;17145;49.902;8.680;'2023-04-01 09:52:26';98370;;;9;53
30343;BME280;17145;49.902;8.680;'2023-04-01 09:55:01';98380;;;10;53
30343;BME280;17145;49.902;8.680;'2023-04-01 09:57:37';98380;;;9;53
30343;BME280;17145;49.902;8.680;'2023-04-01 10:00:13';98380;;;9;54
30343;BME280;17145;49.902;8.680;'2023-04-01 10:02:56';98380;;;9;53
30343;BME280;17145;49.902;8.680;'2023-04-01 10:05:27';98390;;;9;53
30343;BME280;17145;49.902;8.680;'2023-04-01 10:08:06';98390;;;9;53
30343;BME280;17145;49.902;8.680;'2023-04-01 10:10:42';98390;;;10;53
30343;BME280;17145;49.902;8.680;'2023-04-01 10:13:19';98380;;;9;54
30343;BME280;17145;49.902;8.680;'2023-04-01 10:15:53';98390;;;10;53
30343;BME280;17145;49.902;8.680;'2023-04-01 10:18:32';98390;;;10;53
30343;BME280;17145;49.902;8.680;'2023-04-01 10:21:02';98400;;;10;53
30343;BME280;17145;49.902;8.680;'2023-04-01 10:23:32';98400;;;10;53
30343;BME280;17145;49.902;8.680;'2023-04-01 10:26:05';98400;;;10;53
30343;BME280;17145;49.902;8.680;'2023-04-01 10:28:40';98410;;;9;53
30343;BME280;17145;49.902;8.680;'2023-04-01 10:31:13';98410;;;10;53
30343;BME280;17145;49.902;8.680;'2023-04-01 10:33:44';98400;;;9;55
30343;BME280;17145;49.902;8.680;'2023-04-01 10:36:16';98400;;;9;56
30343;BME280;17145;49.902;8.680;'2023-04-01 10:38:49';98410;;;9;55
30343;BME280;17145;49.902;8.680;'2023-04-01 10:44:14';98410;;;9;56
30343;BME280;17145;49.902;8.680;'2023-04-01 10:47:01';98410;;;10;56
30343;BME280;17145;49.902;8.680;'2023-04-01 10:49:48';98410;;;9;56
30343;BME280;17145;49.902;8.680;'2023-04-01 10:55:14';98410;;;10;56
30343;BME280;17145;49.902;8.680;'2023-04-01 10:57:51';98410;;;9;57
30343;BME280;17145;49.902;8.680;'2023-04-01 11:03:11';98410;;;9;57
30343;BME280;17145;49.902;8.680;'2023-04-01 11:05:53';98420;;;10;56
30343;BME280;17145;49.902;8.680;'2023-04-01 11:08:35';98420;;;9;56
30343;BME280;17145;49.902;8.680;'2023-04-01 11:16:39';98420;;;9;59
30343;BME280;17145;49.902;8.680;'2023-04-01 11:19:23';98430;;;10;58
30343;BME280;17145;49.902;8.680;'2023-04-01 11:24:51';98420;;;10;56
30343;BME280;17145;49.902;8.680;'2023-04-01 11:27:27';98430;;;9;58
30343;BME280;17145;49.902;8.680;'2023-04-01 11:30:14';98440;;;9;58
30343;BME280;17145;49.902;8.680;'2023-04-01 11:32:58';98440;;;9;59
30343;BME280;17145;49.902;8.680;'2023-04-01 11:35:39';98450;;;9;60
30343;BME280;17145;49.902;8.680;'2023-04-01 11:38:20';98440;;;9;59
30343;BME280;17145;49.902;8.680;'2023-04-01 11:40:55';98440;;;9;60
30343;BME280;17145;49.902;8.680;'2023-04-01 11:46:09';98440;;;10;59
30343;BME280;17145;49.902;8.680;'2023-04-01 11:48:59';98450;;;10;59
30343;BME280;17145;49.902;8.680;'2023-04-01 11:51:37';98450;;;10;58
30343;BME280;17145;49.902;8.680;'2023-04-01 11:54:20';98450;;;10;58
30343;BME280;17145;49.902;8.680;'2023-04-01 11:57:07';98450;;;10;58
30343;BME280;17145;49.902;8.680;'2023-04-01 11:59:50';98450;;;10;58
30343;BME280;17145;49.902;8.680;'2023-04-01 12:02:39';98450;;;10;58
30343;BME280;17145;49.902;8.680;'2023-04-01 12:05:31';98460;;;10;58
30343;BME280;17145;49.902;8.680;'2023-04-01 12:08:17';98450;;;10;58
30343;BME280;17145;49.902;8.680;'2023-04-01 12:13:47';98460;;;10;60
30343;BME280;17145;49.902;8.680;'2023-04-01 12:16:31';98450;;;10;60
30343;BME280;17145;49.902;8.680;'2023-04-01 12:19:21';98460;;;10;59
30343;BME280;17145;49.902;8.680;'2023-04-01 12:24:51';98460;;;10;60
30343;BME280;17145;49.902;8.680;'2023-04-01 12:30:24';98460;;;10;59
30343;BME280;17145;49.902;8.680;'2023-04-01 12:33:16';98460;;;10;58
30343;BME280;17145;49.902;8.680;'2023-04-01 12:41:22';98460;;;11;59
30343;BME280;17145;49.902;8.680;'2023-04-01 12:44:03';98460;;;10;58
30343;BME280;17145;49.902;8.680;'2023-04-01 12:49:27';98460;;;10;59
30343;BME280;17145;49.902;8.680;'2023-04-01 12:52:17';98460;;;10;59
30343;BME280;17145;49.902;8.680;'2023-04-01 12:57:31';98460;;;10;59
30343;BME280;17145;49.902;8.680;'2023-04-01 13:14:22';98470;;;10;60
30343;BME280;17145;49.902;8.680;'2023-04-01 13:19:56';98470;;;10;59
30343;BME280;17145;49.902;8.680;'2023-04-01 13:22:41';98470;;;10;60
30343;BME280;17145;49.902;8.680;'2023-04-01 13:25:29';98480;;;11;59
30343;BME280;17145;49.902;8.680;'2023-04-01 13:28:15';98480;;;10;58
30343;BME280;17145;49.902;8.680;'2023-04-01 13:30:57';98470;;;11;59
30343;BME280;17145;49.902;8.680;'2023-04-01 13:33:33';98470;;;11;58
30343;BME280;17145;49.902;8.680;'2023-04-01 13:36:15';98480;;;10;59
30343;BME280;17145;49.902;8.680;'2023-04-01 13:39:02';98480;;;10;59
30343;BME280;17145;49.902;8.680;'2023-04-01 13:41:38';98480;;;11;59
30343;BME280;17145;49.902;8.680;'2023-04-01 13:44:16';98490;;;10;60
30343;BME280;17145;49.902;8.680;'2023-04-01 13:46:59';98490;;;11;60
30343;BME280;17145;49.902;8.680;'2023-04-01 13:49:40';98490;;;10;60
30343;BME280;17145;49.902;8.680;'2023-04-01 13:52:21';98500;;;10;60
30343;BME280;17145;49.902;8.680;'2023-04-01 13:55:11';98500;;;10;60
30343;BME280;17145;49.902;8.680;'2023-04-01 14:00:31';98490;;;11;59
30343;BME280;17145;49.902;8.680;'2023-04-01 14:03:15';98500;;;11;60
30343;BME280;17145;49.902;8.680;'2023-04-01 14:05:48';98490;;;10;61
30343;BME280;17145;49.902;8.680;'2023-04-01 14:08:30';98500;;;11;60
30343;BME280;17145;49.902;8.680;'2023-04-01 14:11:05';98500;;;11;60
30343;BME280;17145;49.902;8.680;'2023-04-01 14:13:42';98490;;;11;60
30343;BME280;17145;49.902;8.680;'2023-04-01 14:16:24';98500;;;10;60
30343;BME280;17145;49.902;8.680;'2023-04-01 14:18:58';98510;;;11;60
30343;BME280;17145;49.902;8.680;'2023-04-01 14:21:33';98500;;;11;59
30343;BME280;17145;49.902;8.680;'2023-04-01 14:24:19';98500;;;10;60
30343;BME280;17145;49.902;8.680;'2023-04-01 14:26:59';98510;;;11;60
30343;BME280;17145;49.902;8.680;'2023-04-01 14:29:41';98510;;;10;60
30343;BME280;17145;49.902;8.680;'2023-04-01 14:32:20';98500;;;10;60
30343;BME280;17145;49.902;8.680;'2023-04-01 14:35:02';98500;;;11;60
30343;BME280;17145;49.902;8.680;'2023-04-01 14:37:39';98500;;;11;60
30343;BME280;17145;49.902;8.680;'2023-04-01 14:40:20';98500;;;10;59
30343;BME280;17145;49.902;8.680;'2023-04-01 14:43:04';98500;;;11;60
30343;BME280;17145;49.902;8.680;'2023-04-01 14:48:11';98500;;;11;59
30343;BME280;17145;49.902;8.680;'2023-04-01 14:50:56';98500;;;11;58
30343;BME280;17145;49.902;8.680;'2023-04-01 14:53:39';98500;;;11;59
30343;BME280;17145;49.902;8.680;'2023-04-01 15:04:31';98520;;;11;59
30343;BME280;17145;49.902;8.680;'2023-04-01 15:07:16';98530;;;10;59
30343;BME280;17145;49.902;8.680;'2023-04-01 15:09:52';98530;;;11;59
30343;BME280;17145;49.902;8.680;'2023-04-01 15:12:35';98540;;;10;59
30343;BME280;17145;49.902;8.680;'2023-04-01 15:15:19';98540;;;11;60
30343;BME280;17145;49.902;8.680;'2023-04-01 15:17:58';98540;;;11;60
30343;BME280;17145;49.902;8.680;'2023-04-01 15:20:40';98540;;;10;61
30343;BME280;17145;49.902;8.680;'2023-04-01 15:23:19';98540;;;10;61
30343;BME280;17145;49.902;8.680;'2023-04-01 15:25:54';98540;;;11;61
30343;BME280;17145;49.902;8.680;'2023-04-01 15:28:25';98540;;;11;61
30343;BME280;17145;49.902;8.680;'2023-04-01 15:31:02';98540;;;10;61
30343;BME280;17145;49.902;8.680;'2023-04-01 15:33:40';98550;;;10;61
30343;BME280;17145;49.902;8.680;'2023-04-01 15:36:19';98550;;;11;60
30343;BME280;17145;49.902;8.680;'2023-04-01 15:39:02';98540;;;11;59
30343;BME280;17145;49.902;8.680;'2023-04-01 15:41:44';98550;;;10;59
30343;BME280;17145;49.902;8.680;'2023-04-01 15:44:20';98550;;;11;59
30343;BME280;17145;49.902;8.680;'2023-04-01 15:47:04';98550;;;10;59
30343;BME280;17145;49.902;8.680;'2023-04-01 15:49:45';98540;;;11;59
30343;BME280;17145;49.902;8.680;'2023-04-01 15:55:16';98550;;;11;60
30343;BME280;17145;49.902;8.680;'2023-04-01 15:57:56';98550;;;11;59
30343;BME280;17145;49.902;8.680;'2023-04-01 16:03:12';98540;;;11;58
30343;BME280;17145;49.902;8.680;'2023-04-01 16:05:53';98540;;;11;58
30343;BME280;17145;49.902;8.680;'2023-04-01 16:08:35';98540;;;11;58
30343;BME280;17145;49.902;8.680;'2023-04-01 16:11:16';98550;;;11;58
30343;BME280;17145;49.902;8.680;'2023-04-01 16:13:55';98550;;;11;57
30343;BME280;17145;49.902;8.680;'2023-04-01 16:19:17';98550;;;11;58
30343;BME280;17145;49.902;8.680;'2023-04-01 16:21:55';98560;;;11;58
30343;BME280;17145;49.902;8.680;'2023-04-01 16:24:35';98560;;;11;57
30343;BME280;17145;49.902;8.680;'2023-04-01 16:27:19';98560;;;10;58
30343;BME280;17145;49.902;8.680;'2023-04-01 16:30:00';98560;;;11;58
30343;BME280;17145;49.902;8.680;'2023-04-01 16:32:39';98570;;;11;58
30343;BME280;17145;49.902;8.680;'2023-04-01 16:35:24';98570;;;11;57
30343;BME280;17145;49.902;8.680;'2023-04-01 16:38:04';98570;;;11;57
30343;BME280;17145;49.902;8.680;'2023-04-01 16:40:49';98560;;;12;56
30343;BME280;17145;49.902;8.680;'2023-04-01 16:43:34';98580;;;11;56
30343;BME280;17145;49.902;8.680;'2023-04-01 16:46:21';98580;;;11;57
30343;BME280;17145;49.902;8.680;'2023-04-01 16:48:52';98580;;;11;58
30343;BME280;17145;49.902;8.680;'2023-04-01 16:51:28';98580;;;11;58
30343;BME280;17145;49.902;8.680;'2023-04-01 16:54:05';98580;;;11;58
30343;BME280;17145;49.902;8.680;'2023-04-01 16:56:39';98590;;;11;58
30343;BME280;17145;49.902;8.680;'2023-04-01 16:59:10';98600;;;11;58
30343;BME280;17145;49.902;8.680;'2023-04-01 17:01:46';98590;;;11;57
30343;BME280;17145;49.902;8.680;'2023-04-01 17:07:16';98600;;;11;59
30343;BME280;17145;49.902;8.680;'2023-04-01 17:09:51';98600;;;11;60
30343;BME280;17145;49.902;8.680;'2023-04-01 17:12:29';98600;;;10;60
30343;BME280;17145;49.902;8.680;'2023-04-01 17:15:16';98610;;;10;60
30343;BME280;17145;49.902;8.680;'2023-04-01 17:17:58';98610;;;10;60
30343;BME280;17145;49.902;8.680;'2023-04-01 17:20:45';98610;;;10;60
30343;BME280;17145;49.902;8.680;'2023-04-01 17:26:02';98610;;;10;59
30343;BME280;17145;49.902;8.680;'2023-04-01 17:28:38';98630;;;11;60
30343;BME280;17145;49.902;8.680;'2023-04-01 17:31:14';98620;;;10;59
30343;BME280;17145;49.902;8.680;'2023-04-01 17:33:59';98620;;;11;59
30343;BME280;17145;49.902;8.680;'2023-04-01 17:36:37';98620;;;10;59
30343;BME280;17145;49.902;8.680;'2023-04-01 17:39:13';98630;;;11;59
30343;BME280;17145;49.902;8.680;'2023-04-01 17:41:49';98620;;;11;59
30343;BME280;17145;49.902;8.680;'2023-04-01 17:44:33';98630;;;11;59
30343;BME280;17145;49.902;8.680;'2023-04-01 17:47:07';98630;;;11;58
30343;BME280;17145;49.902;8.680;'2023-04-01 17:49:39';98630;;;10;58
30343;BME280;17145;49.902;8.680;'2023-04-01 17:52:18';98630;;;10;58
30343;BME280;17145;49.902;8.680;'2023-04-01 17:54:59';98630;;;10;58
30343;BME280;17145;49.902;8.680;'2023-04-01 17:57:34';98630;;;11;59
30343;BME280;17145;49.902;8.680;'2023-04-01 18:00:22';98640;;;11;58
30343;BME280;17145;49.902;8.680;'2023-04-01 18:02:58';98650;;;9;59
30343;BME280;17145;49.902;8.680;'2023-04-01 18:05:37';98640;;;10;59
30343;BME280;17145;49.902;8.680;'2023-04-01 18:08:20';98640;;;10;58
30343;BME280;17145;49.902;8.680;'2023-04-01 18:11:02';98650;;;10;58
30343;BME280;17145;49.902;8.680;'2023-04-01 18:13:42';98650;;;10;58
30343;BME280;17145;49.902;8.680;'2023-04-01 18:16:22';98650;;;10;58
30343;BME280;17145;49.902;8.680;'2023-04-01 18:19:06';98660;;;10;57
30343;BME280;17145;49.902;8.680;'2023-04-01 18:21:41';98660;;;10;57
30343;BME280;17145;49.902;8.680;'2023-04-01 18:24:19';98670;;;10;57
30343;BME280;17145;49.902;8.680;'2023-04-01 18:26:55';98670;;;10;57
30343;BME280;17145;49.902;8.680;'2023-04-01 18:32:13';98670;;;10;57
30343;BME280;17145;49.902;8.680;'2023-04-01 18:34:47';98680;;;10;57
30343;BME280;17145;49.902;8.680;'2023-04-01 18:37:20';98680;;;9;58
30343;BME280;17145;49.902;8.680;'2023-04-01 18:39:57';98690;;;9;57